createdAt,value
2018-01-21T00:00:06.234Z,96320.13
2018-01-21T00:00:37.138Z,96318.48
2018-01-21T00:01:08.038Z,96322.82
2018-01-21T00:01:38.950Z,96324.09
2018-01-21T00:02:09.850Z,96327.53
2018-01-21T00:02:40.758Z,96322.05
2018-01-21T00:03:11.666Z,96325.88
2018-01-21T00:03:42.614Z,96320.02
2018-01-21T00:04:13.514Z,96323.02
2018-01-21T00:04:44.410Z,96317.05
2018-01-21T00:05:15.302Z,96320.11
2018-01-21T00:05:46.201Z,96320.05
2018-01-21T00:06:17.103Z,96315.45
2018-01-21T00:06:48.021Z,96319.97
2018-01-21T00:07:18.930Z,96321.66
2018-01-21T00:07:49.829Z,96322.55
2018-01-21T00:08:20.742Z,96321.27
2018-01-21T00:08:51.689Z,96320.52
2018-01-21T00:09:22.590Z,96324.80
2018-01-21T00:09:53.481Z,96321.33
2018-01-21T00:10:24.382Z,96328.20
2018-01-21T00:10:55.282Z,96322.69
2018-01-21T00:11:26.181Z,96321.83
2018-01-21T00:11:57.082Z,96321.91
2018-01-21T00:12:27.989Z,96321.94
2018-01-21T00:12:58.890Z,96312.59
2018-01-21T00:13:29.794Z,96316.00
2018-01-21T00:14:00.729Z,96310.93
2018-01-21T00:14:31.673Z,96317.73
2018-01-21T00:15:02.567Z,96318.17
2018-01-21T00:15:33.469Z,96334.75
2018-01-21T00:16:04.366Z,96314.34
2018-01-21T00:16:35.269Z,96310.19
2018-01-21T00:17:06.182Z,96316.15
2018-01-21T00:17:37.081Z,96317.84
2018-01-21T00:18:07.985Z,96314.41
2018-01-21T00:18:38.891Z,96314.02
2018-01-21T00:19:09.809Z,96309.33
2018-01-21T00:19:40.774Z,96309.77
2018-01-21T00:20:11.673Z,96309.80
2018-01-21T00:20:42.574Z,96316.15
2018-01-21T00:21:13.478Z,96313.59
2018-01-21T00:21:44.378Z,96309.80
2018-01-21T00:22:15.286Z,96309.50
2018-01-21T00:22:46.186Z,96309.86
2018-01-21T00:23:17.089Z,96313.20
2018-01-21T00:23:47.990Z,96311.87
2018-01-21T00:24:18.890Z,96311.87
2018-01-21T00:24:49.853Z,96310.52
2018-01-21T00:25:20.750Z,96312.30
2018-01-21T00:25:51.654Z,96312.30
2018-01-21T00:26:22.554Z,96313.55
2018-01-21T00:26:53.463Z,96314.43
2018-01-21T00:27:24.367Z,96311.77
2018-01-21T00:27:55.261Z,96314.29
2018-01-21T00:28:26.158Z,96313.84
2018-01-21T00:28:57.061Z,96309.52
2018-01-21T00:29:27.953Z,96310.31
2018-01-21T00:29:58.907Z,96316.70
2018-01-21T00:30:29.850Z,96309.48
2018-01-21T00:31:00.757Z,96307.80
2018-01-21T00:31:31.661Z,96310.34
2018-01-21T00:32:02.558Z,96309.84
2018-01-21T00:32:33.505Z,96313.34
2018-01-21T00:33:04.405Z,96314.17
2018-01-21T00:33:35.302Z,96310.31
2018-01-21T00:34:06.205Z,96313.76
2018-01-21T00:34:37.102Z,96316.28
2018-01-21T00:35:07.998Z,96313.31
2018-01-21T00:35:38.941Z,96312.45
2018-01-21T00:36:09.846Z,96315.00
2018-01-21T00:36:40.754Z,96310.31
2018-01-21T00:37:11.653Z,96315.06
2018-01-21T00:37:42.558Z,96318.09
2018-01-21T00:38:13.457Z,96309.52
2018-01-21T00:38:44.354Z,96316.34
2018-01-21T00:39:15.258Z,96316.40
2018-01-21T00:39:46.146Z,96323.10
2018-01-21T00:40:17.058Z,96319.30
2018-01-21T00:40:48.002Z,96320.64
2018-01-21T00:41:18.902Z,96318.83
2018-01-21T00:41:49.797Z,96320.13
2018-01-21T00:42:20.698Z,96321.08
2018-01-21T00:42:51.645Z,96317.73
2018-01-21T00:43:22.550Z,96323.98
2018-01-21T00:43:53.454Z,96317.59
2018-01-21T00:44:24.349Z,96323.97
2018-01-21T00:44:55.257Z,96321.02
2018-01-21T00:45:26.150Z,96318.09
2018-01-21T00:45:57.045Z,96318.47
2018-01-21T00:46:27.945Z,96316.45
2018-01-21T00:46:58.849Z,96316.40
2018-01-21T00:47:29.749Z,96316.81
2018-01-21T00:48:00.689Z,96320.13
2018-01-21T00:48:31.586Z,96318.77
2018-01-21T00:49:02.485Z,96322.52
2018-01-21T00:49:33.383Z,96327.63
2018-01-21T00:50:04.286Z,96318.72
2018-01-21T00:50:35.181Z,96325.88
2018-01-21T00:51:06.114Z,96322.16
2018-01-21T00:51:37.061Z,96322.55
2018-01-21T00:52:08.000Z,96316.20
2018-01-21T00:52:38.961Z,96327.67
2018-01-21T00:53:09.841Z,96323.32
2018-01-21T00:53:40.733Z,96326.38
2018-01-21T00:54:11.634Z,96323.38
2018-01-21T00:54:42.531Z,96321.30
2018-01-21T00:55:13.434Z,96329.88
2018-01-21T00:55:44.321Z,96322.52
2018-01-21T00:56:15.216Z,96321.16
2018-01-21T00:56:46.109Z,96322.68
2018-01-21T00:57:17.061Z,96324.92
2018-01-21T00:57:47.958Z,96325.01
2018-01-21T00:58:18.877Z,96322.69
2018-01-21T00:58:49.769Z,96326.63
2018-01-21T00:59:20.674Z,96327.60
2018-01-21T00:59:51.574Z,96329.65
2018-01-21T01:00:22.469Z,96327.52
2018-01-21T01:00:53.371Z,96333.47
2018-01-21T01:01:24.270Z,96330.02
2018-01-21T01:01:55.178Z,96330.45
2018-01-21T01:02:26.116Z,96330.37
2018-01-21T01:02:57.071Z,96332.78
2018-01-21T01:03:27.969Z,96332.73
2018-01-21T01:03:58.878Z,96329.37
2018-01-21T01:04:29.820Z,96330.64
2018-01-21T01:05:00.719Z,96330.20
2018-01-21T01:05:31.621Z,96331.45
2018-01-21T01:06:02.526Z,96338.27
2018-01-21T01:06:33.417Z,96331.80
2018-01-21T01:07:04.318Z,96329.25
2018-01-21T01:07:35.226Z,96327.56
2018-01-21T01:08:06.170Z,96331.33
2018-01-21T01:08:37.068Z,96321.69
2018-01-21T01:09:07.962Z,96330.53
2018-01-21T01:09:38.849Z,96328.48
2018-01-21T01:10:09.759Z,96323.80
2018-01-21T01:10:40.690Z,96328.95
2018-01-21T01:11:11.589Z,96323.98
2018-01-21T01:11:42.497Z,96335.11
2018-01-21T01:12:13.398Z,96326.13
2018-01-21T01:12:44.310Z,96337.05
2018-01-21T01:13:15.214Z,96329.39
2018-01-21T01:13:46.126Z,96328.17
2018-01-21T01:14:17.025Z,96326.93
2018-01-21T01:14:47.926Z,96332.03
2018-01-21T01:15:18.825Z,96328.98
2018-01-21T01:15:49.722Z,96331.17
2018-01-21T01:16:20.622Z,96329.88
2018-01-21T01:16:51.522Z,96333.75
2018-01-21T01:17:22.413Z,96335.44
2018-01-21T01:17:53.357Z,96340.66
2018-01-21T01:18:24.243Z,96344.91
2018-01-21T01:18:55.137Z,96341.13
2018-01-21T01:19:26.029Z,96340.24
2018-01-21T01:19:56.933Z,96343.63
2018-01-21T01:20:27.838Z,96341.38
2018-01-21T01:20:58.802Z,96346.18
2018-01-21T01:21:29.705Z,96343.55
2018-01-21T01:22:00.597Z,96349.98
2018-01-21T01:22:31.508Z,96344.07
2018-01-21T01:23:02.430Z,96347.03
2018-01-21T01:23:33.326Z,96347.81
2018-01-21T01:24:04.226Z,96342.66
2018-01-21T01:24:35.121Z,96337.00
2018-01-21T01:25:06.017Z,96343.01
2018-01-21T01:25:36.946Z,96340.02
2018-01-21T01:26:07.878Z,96340.08
2018-01-21T01:26:38.809Z,96347.73
2018-01-21T01:27:09.701Z,96351.94
2018-01-21T01:27:40.606Z,96343.91
2018-01-21T01:28:11.514Z,96342.56
2018-01-21T01:28:42.406Z,96348.06
2018-01-21T01:29:13.314Z,96344.70
2018-01-21T01:29:44.210Z,96345.95
2018-01-21T01:30:15.106Z,96345.65
2018-01-21T01:30:46.014Z,96349.86
2018-01-21T01:31:17.073Z,96352.41
2018-01-21T01:31:47.963Z,96349.80
2018-01-21T01:32:25.002Z,96351.50
2018-01-21T01:32:55.901Z,96357.82
2018-01-21T01:33:26.798Z,96359.13
2018-01-21T01:33:57.726Z,96352.44
2018-01-21T01:34:28.635Z,96353.22
2018-01-21T01:34:59.525Z,96356.16
2018-01-21T01:35:30.413Z,96357.05
2018-01-21T01:36:01.339Z,96359.68
2018-01-21T01:36:32.285Z,96359.59
2018-01-21T01:37:03.186Z,96363.39
2018-01-21T01:37:34.118Z,96361.29
2018-01-21T01:38:05.018Z,96358.27
2018-01-21T01:38:35.917Z,96363.78
2018-01-21T01:39:06.818Z,96364.14
2018-01-21T01:39:44.737Z,96363.76
2018-01-21T01:40:15.642Z,96367.97
2018-01-21T01:40:46.537Z,96362.06
2018-01-21T01:41:17.438Z,96360.07
2018-01-21T01:41:48.377Z,96363.42
2018-01-21T01:42:19.278Z,96361.34
2018-01-21T01:42:50.189Z,96363.06
2018-01-21T01:43:21.081Z,96364.37
2018-01-21T01:43:52.017Z,96367.20
2018-01-21T01:44:22.910Z,96362.12
2018-01-21T01:44:53.818Z,96362.20
2018-01-21T01:45:24.717Z,96362.67
2018-01-21T01:45:55.609Z,96364.34
2018-01-21T01:46:26.501Z,96367.31
2018-01-21T01:46:57.406Z,96365.11
2018-01-21T01:47:28.303Z,96359.95
2018-01-21T01:47:59.198Z,96366.25
2018-01-21T01:48:30.086Z,96367.47
2018-01-21T01:49:01.021Z,96362.67
2018-01-21T01:49:31.922Z,96360.59
2018-01-21T01:50:02.854Z,96363.97
2018-01-21T01:50:33.762Z,96366.22
2018-01-21T01:51:04.658Z,96368.69
2018-01-21T01:51:35.560Z,96368.36
2018-01-21T01:52:06.469Z,96370.44
2018-01-21T01:52:37.414Z,96363.70
2018-01-21T01:53:08.317Z,96365.83
2018-01-21T01:53:39.213Z,96363.81
2018-01-21T01:54:10.158Z,96368.47
2018-01-21T01:54:41.062Z,96367.25
2018-01-21T01:55:11.963Z,96367.67
2018-01-21T01:55:42.870Z,96359.68
2018-01-21T01:56:13.770Z,96365.23
2018-01-21T01:56:44.673Z,96365.31
2018-01-21T01:57:15.574Z,96363.17
2018-01-21T01:57:46.478Z,96365.31
2018-01-21T01:58:17.372Z,96361.91
2018-01-21T01:58:48.265Z,96365.09
2018-01-21T01:59:19.206Z,96366.78
2018-01-21T01:59:50.097Z,96367.22
2018-01-21T02:00:20.986Z,96366.45
2018-01-21T02:00:51.926Z,96369.89
2018-01-21T02:01:22.849Z,96370.83
2018-01-21T02:01:53.749Z,96374.58
2018-01-21T02:02:24.638Z,96372.47
2018-01-21T02:02:55.542Z,96370.69
2018-01-21T02:03:26.481Z,96369.33
2018-01-21T02:03:57.378Z,96377.84
2018-01-21T02:04:28.269Z,96369.02
2018-01-21T02:04:59.173Z,96370.16
2018-01-21T02:05:30.073Z,96377.98
2018-01-21T02:06:00.985Z,96376.23
2018-01-21T02:06:31.894Z,96376.17
2018-01-21T02:07:02.790Z,96381.76
2018-01-21T02:07:33.686Z,96375.94
2018-01-21T02:08:04.630Z,96377.21
2018-01-21T02:08:35.595Z,96376.29
2018-01-21T02:09:06.489Z,96383.59
2018-01-21T02:09:37.390Z,96381.81
2018-01-21T02:10:08.317Z,96373.38
2018-01-21T02:10:39.218Z,96380.95
2018-01-21T02:11:10.118Z,96379.23
2018-01-21T02:11:40.985Z,96380.09
2018-01-21T02:12:11.857Z,96381.78
2018-01-21T02:12:42.720Z,96378.91
2018-01-21T02:13:13.601Z,96382.25
2018-01-21T02:13:44.509Z,96377.98
2018-01-21T02:14:15.437Z,96382.78
2018-01-21T02:14:46.309Z,96378.13
2018-01-21T02:15:17.182Z,96378.63
2018-01-21T02:15:48.159Z,96383.64
2018-01-21T02:16:19.025Z,96381.95
2018-01-21T02:16:49.893Z,96379.78
2018-01-21T02:17:20.760Z,96384.80
2018-01-21T02:17:51.629Z,96382.97
2018-01-21T02:18:22.501Z,96385.47
2018-01-21T02:18:53.357Z,96388.88
2018-01-21T02:19:24.260Z,96389.66
2018-01-21T02:19:55.125Z,96387.94
2018-01-21T02:20:25.989Z,96387.11
2018-01-21T02:20:56.857Z,96387.52
2018-01-21T02:21:27.733Z,96386.22
2018-01-21T02:21:58.593Z,96390.02
2018-01-21T02:22:29.457Z,96385.39
2018-01-21T02:23:00.329Z,96377.31
2018-01-21T02:23:31.201Z,96385.33
2018-01-21T02:24:02.065Z,96382.39
2018-01-21T02:24:32.982Z,96381.51
2018-01-21T02:25:03.929Z,96381.95
2018-01-21T02:25:34.793Z,96380.64
2018-01-21T02:26:05.661Z,96388.77
2018-01-21T02:26:36.532Z,96382.00
2018-01-21T02:27:07.413Z,96388.02
2018-01-21T02:27:38.293Z,96387.19
2018-01-21T02:28:09.157Z,96384.17
2018-01-21T02:28:40.037Z,96387.91
2018-01-21T02:29:10.904Z,96388.33
2018-01-21T02:29:41.777Z,96385.33
2018-01-21T02:30:12.650Z,96391.66
2018-01-21T02:30:43.522Z,96389.58
2018-01-21T02:31:14.389Z,96391.66
2018-01-21T02:31:45.254Z,96388.22
2018-01-21T02:32:16.130Z,96388.13
2018-01-21T02:32:47.001Z,96393.30
2018-01-21T02:33:17.873Z,96390.33
2018-01-21T02:33:48.749Z,96388.77
2018-01-21T02:34:19.613Z,96394.31
2018-01-21T02:34:50.521Z,96391.73
2018-01-21T02:35:21.396Z,96391.73
2018-01-21T02:35:52.309Z,96390.88
2018-01-21T02:36:23.173Z,96391.71
2018-01-21T02:36:54.120Z,96393.02
2018-01-21T02:37:24.989Z,96391.83
2018-01-21T02:37:55.929Z,96386.75
2018-01-21T02:38:26.834Z,96392.71
2018-01-21T02:38:57.734Z,96389.72
2018-01-21T02:39:28.629Z,96387.49
2018-01-21T02:39:59.537Z,96390.55
2018-01-21T02:40:30.441Z,96390.02
2018-01-21T02:41:01.430Z,96392.98
2018-01-21T02:41:32.342Z,96388.30
2018-01-21T02:42:03.242Z,96394.68
2018-01-21T02:42:34.145Z,96392.93
2018-01-21T02:43:05.042Z,96391.30
2018-01-21T02:43:35.950Z,96392.16
2018-01-21T02:44:06.837Z,96398.12
2018-01-21T02:44:37.742Z,96395.95
2018-01-21T02:45:08.651Z,96395.84
2018-01-21T02:45:39.549Z,96393.20
2018-01-21T02:46:10.486Z,96394.18
2018-01-21T02:46:41.386Z,96394.15
2018-01-21T02:47:12.286Z,96398.42
2018-01-21T02:47:43.182Z,96394.13
2018-01-21T02:48:14.081Z,96397.98
2018-01-21T02:48:44.986Z,96397.14
2018-01-21T02:49:15.886Z,96398.39
2018-01-21T02:49:46.825Z,96395.89
2018-01-21T02:50:17.733Z,96395.45
2018-01-21T02:50:48.621Z,96403.50
2018-01-21T02:51:19.525Z,96400.09
2018-01-21T02:51:50.430Z,96399.30
2018-01-21T02:52:21.333Z,96401.06
2018-01-21T02:52:52.290Z,96409.19
2018-01-21T02:53:23.190Z,96408.33
2018-01-21T02:53:54.081Z,96403.61
2018-01-21T02:54:24.986Z,96402.22
2018-01-21T02:54:55.886Z,96400.11
2018-01-21T02:55:26.786Z,96401.48
2018-01-21T02:55:57.687Z,96406.22
2018-01-21T02:56:28.586Z,96400.64
2018-01-21T02:56:59.486Z,96409.16
2018-01-21T02:57:30.397Z,96405.77
2018-01-21T02:58:01.346Z,96409.71
2018-01-21T02:58:32.246Z,96408.77
2018-01-21T02:59:03.137Z,96405.44
2018-01-21T02:59:34.042Z,96412.62
2018-01-21T03:00:04.951Z,96410.48
2018-01-21T03:00:35.861Z,96411.30
2018-01-21T03:01:06.773Z,96412.90
2018-01-21T03:01:37.674Z,96405.61
2018-01-21T03:02:08.578Z,96419.23
2018-01-21T03:02:39.470Z,96412.04
2018-01-21T03:03:10.410Z,96415.14
2018-01-21T03:03:41.314Z,96419.00
2018-01-21T03:04:12.218Z,96413.45
2018-01-21T03:04:43.117Z,96412.62
2018-01-21T03:05:14.018Z,96421.22
2018-01-21T03:05:44.909Z,96419.97
2018-01-21T03:06:15.802Z,96417.78
2018-01-21T03:06:46.713Z,96419.06
2018-01-21T03:07:17.613Z,96419.47
2018-01-21T03:07:48.565Z,96424.19
2018-01-21T03:08:19.518Z,96421.22
2018-01-21T03:08:50.422Z,96423.72
2018-01-21T03:09:21.317Z,96422.83
2018-01-21T03:09:52.219Z,96425.77
2018-01-21T03:10:23.118Z,96423.22
2018-01-21T03:10:54.014Z,96423.30
2018-01-21T03:11:24.917Z,96424.10
2018-01-21T03:11:55.813Z,96427.98
2018-01-21T03:12:26.706Z,96432.65
2018-01-21T03:12:57.606Z,96429.27
2018-01-21T03:13:28.553Z,96429.27
2018-01-21T03:13:59.441Z,96427.55
2018-01-21T03:14:30.341Z,96434.26
2018-01-21T03:15:01.237Z,96426.66
2018-01-21T03:15:32.142Z,96429.27
2018-01-21T03:16:03.047Z,96433.03
2018-01-21T03:16:33.958Z,96430.88
2018-01-21T03:17:04.849Z,96429.16
2018-01-21T03:17:35.745Z,96431.81
2018-01-21T03:18:06.639Z,96432.17
2018-01-21T03:18:37.583Z,96433.51
2018-01-21T03:19:08.484Z,96433.45
2018-01-21T03:19:39.434Z,96435.97
2018-01-21T03:20:10.334Z,96435.14
2018-01-21T03:20:41.225Z,96434.28
2018-01-21T03:21:12.130Z,96434.23
2018-01-21T03:21:43.034Z,96439.80
2018-01-21T03:22:13.937Z,96435.53
2018-01-21T03:22:44.833Z,96441.91
2018-01-21T03:23:15.742Z,96439.28
2018-01-21T03:23:46.643Z,96439.83
2018-01-21T03:24:17.546Z,96439.83
2018-01-21T03:24:48.482Z,96442.35
2018-01-21T03:25:19.386Z,96440.33
2018-01-21T03:25:50.285Z,96440.80
2018-01-21T03:26:21.181Z,96447.23
2018-01-21T03:26:52.090Z,96441.72
2018-01-21T03:27:22.989Z,96447.26
2018-01-21T03:27:53.893Z,96445.98
2018-01-21T03:28:24.782Z,96442.98
2018-01-21T03:28:55.678Z,96442.48
2018-01-21T03:29:26.623Z,96443.02
2018-01-21T03:29:57.573Z,96441.34
2018-01-21T03:30:28.630Z,96444.76
2018-01-21T03:30:59.536Z,96443.13
2018-01-21T03:31:30.434Z,96446.03
2018-01-21T03:32:01.338Z,96452.08
2018-01-21T03:32:32.241Z,96443.59
2018-01-21T03:33:03.146Z,96446.03
2018-01-21T03:33:34.050Z,96448.14
2018-01-21T03:34:04.953Z,96448.12
2018-01-21T03:34:35.854Z,96443.54
2018-01-21T03:35:06.798Z,96446.12
2018-01-21T03:35:37.702Z,96449.55
2018-01-21T03:36:08.611Z,96450.89
2018-01-21T03:36:39.516Z,96452.97
2018-01-21T03:37:10.410Z,96450.41
2018-01-21T03:37:41.303Z,96453.02
2018-01-21T03:38:12.205Z,96452.16
2018-01-21T03:38:43.104Z,96452.91
2018-01-21T03:39:14.022Z,96451.75
2018-01-21T03:39:44.926Z,96454.34
2018-01-21T03:40:15.881Z,96458.17
2018-01-21T03:40:46.778Z,96458.06
2018-01-21T03:41:17.687Z,96453.80
2018-01-21T03:41:48.593Z,96454.33
2018-01-21T03:42:19.493Z,96455.20
2018-01-21T03:42:50.389Z,96458.67
2018-01-21T03:43:21.289Z,96457.31
2018-01-21T03:43:52.190Z,96463.36
2018-01-21T03:44:23.090Z,96462.37
2018-01-21T03:44:53.977Z,96464.00
2018-01-21T03:45:24.965Z,96464.39
2018-01-21T03:45:55.890Z,96466.06
2018-01-21T03:46:26.794Z,96466.42
2018-01-21T03:46:57.694Z,96467.28
2018-01-21T03:47:28.593Z,96467.28
2018-01-21T03:47:59.494Z,96469.94
2018-01-21T03:48:30.394Z,96469.11
2018-01-21T03:49:01.288Z,96474.58
2018-01-21T03:49:32.190Z,96474.94
2018-01-21T03:50:03.094Z,96472.75
2018-01-21T03:50:34.025Z,96479.52
2018-01-21T03:51:04.918Z,96474.91
2018-01-21T03:51:35.814Z,96464.79
2018-01-21T03:52:06.717Z,96479.98
2018-01-21T03:52:37.614Z,96475.30
2018-01-21T03:53:08.513Z,96474.38
2018-01-21T03:53:39.426Z,96475.30
2018-01-21T03:54:10.349Z,96473.19
2018-01-21T03:54:41.277Z,96471.52
2018-01-21T03:55:12.182Z,96481.31
2018-01-21T03:55:43.130Z,96475.80
2018-01-21T03:56:14.022Z,96478.77
2018-01-21T03:56:44.926Z,96482.15
2018-01-21T03:57:15.822Z,96480.88
2018-01-21T03:57:46.721Z,96481.73
2018-01-21T03:58:17.614Z,96490.22
2018-01-21T03:58:48.506Z,96479.56
2018-01-21T03:59:19.410Z,96484.59
2018-01-21T03:59:50.309Z,96486.36
2018-01-21T04:00:21.210Z,96487.28
2018-01-21T04:00:52.114Z,96488.13
2018-01-21T04:01:23.005Z,96485.25
2018-01-21T04:01:53.910Z,96485.58
2018-01-21T04:02:24.817Z,96487.50
2018-01-21T04:02:55.709Z,96482.96
2018-01-21T04:03:26.618Z,96485.88
2018-01-21T04:03:57.513Z,96487.48
2018-01-21T04:04:28.710Z,96485.33
2018-01-21T04:04:59.621Z,96485.07
2018-01-21T04:05:30.742Z,96487.59
2018-01-21T04:06:01.634Z,96481.19
2018-01-21T04:06:32.538Z,96485.93
2018-01-21T04:07:03.445Z,96485.05
2018-01-21T04:07:34.346Z,96485.80
2018-01-21T04:08:05.246Z,96480.69
2018-01-21T04:08:36.150Z,96482.89
2018-01-21T04:09:07.047Z,96488.45
2018-01-21T04:09:37.942Z,96487.29
2018-01-21T04:10:08.854Z,96489.42
2018-01-21T04:10:39.789Z,96486.87
2018-01-21T04:11:10.694Z,96493.64
2018-01-21T04:11:41.658Z,96491.01
2018-01-21T04:12:12.565Z,96491.48
2018-01-21T04:12:43.460Z,96485.93
2018-01-21T04:13:14.362Z,96490.28
2018-01-21T04:13:45.262Z,96495.39
2018-01-21T04:14:16.150Z,96492.06
2018-01-21T04:14:47.050Z,96494.55
2018-01-21T04:15:17.966Z,96498.02
2018-01-21T04:15:48.865Z,96492.45
2018-01-21T04:16:19.762Z,96498.80
2018-01-21T04:16:50.701Z,96496.25
2018-01-21T04:17:21.593Z,96501.80
2018-01-21T04:17:52.494Z,96500.99
2018-01-21T04:18:23.398Z,96501.04
2018-01-21T04:18:54.297Z,96498.93
2018-01-21T04:19:25.244Z,96501.04
2018-01-21T04:19:56.141Z,96495.52
2018-01-21T04:20:27.042Z,96496.83
2018-01-21T04:20:57.936Z,96503.62
2018-01-21T04:21:28.834Z,96497.22
2018-01-21T04:21:59.722Z,96505.59
2018-01-21T04:22:30.665Z,96496.69
2018-01-21T04:23:01.606Z,96494.55
2018-01-21T04:23:32.552Z,96507.75
2018-01-21T04:24:03.457Z,96503.62
2018-01-21T04:24:34.362Z,96497.30
2018-01-21T04:25:05.259Z,96502.73
2018-01-21T04:25:36.158Z,96496.77
2018-01-21T04:26:07.058Z,96501.45
2018-01-21T04:26:38.014Z,96499.38
2018-01-21T04:27:08.905Z,96503.15
2018-01-21T04:27:39.814Z,96501.48
2018-01-21T04:28:10.713Z,96501.54
2018-01-21T04:28:41.614Z,96500.20
2018-01-21T04:29:12.518Z,96507.92
2018-01-21T04:29:43.414Z,96500.31
2018-01-21T04:30:14.301Z,96504.45
2018-01-21T04:30:45.209Z,96503.59
2018-01-21T04:31:16.109Z,96504.02
2018-01-21T04:31:47.054Z,96508.28
2018-01-21T04:32:17.962Z,96507.39
2018-01-21T04:32:48.862Z,96504.41
2018-01-21T04:33:19.753Z,96509.45
2018-01-21T04:33:50.719Z,96509.55
2018-01-21T04:34:21.626Z,96514.22
2018-01-21T04:34:52.522Z,96515.58
2018-01-21T04:35:23.409Z,96512.61
2018-01-21T04:35:54.305Z,96513.47
2018-01-21T04:36:25.201Z,96515.10
2018-01-21T04:36:56.097Z,96514.30
2018-01-21T04:37:26.994Z,96516.88
2018-01-21T04:37:57.893Z,96517.29
2018-01-21T04:38:28.806Z,96514.73
2018-01-21T04:38:59.749Z,96516.45
2018-01-21T04:39:30.637Z,96512.68
2018-01-21T04:40:01.541Z,96511.75
2018-01-21T04:40:32.441Z,96515.10
2018-01-21T04:41:03.369Z,96520.59
2018-01-21T04:41:34.265Z,96518.92
2018-01-21T04:42:05.169Z,96517.60
2018-01-21T04:42:36.053Z,96519.16
2018-01-21T04:43:06.945Z,96521.23
2018-01-21T04:43:37.850Z,96520.05
2018-01-21T04:44:08.749Z,96523.06
2018-01-21T04:44:39.637Z,96520.98
2018-01-21T04:45:10.537Z,96523.48
2018-01-21T04:45:41.433Z,96518.85
2018-01-21T04:46:12.378Z,96521.84
2018-01-21T04:46:43.265Z,96525.72
2018-01-21T04:47:14.162Z,96527.44
2018-01-21T04:47:45.058Z,96527.55
2018-01-21T04:48:15.966Z,96525.50
2018-01-21T04:48:46.854Z,96521.27
2018-01-21T04:49:17.753Z,96527.30
2018-01-21T04:49:48.702Z,96531.45
2018-01-21T04:50:19.610Z,96530.16
2018-01-21T04:50:50.517Z,96529.38
2018-01-21T04:51:21.422Z,96525.29
2018-01-21T04:51:52.322Z,96523.08
2018-01-21T04:52:23.235Z,96532.03
2018-01-21T04:52:54.146Z,96529.02
2018-01-21T04:53:25.041Z,96536.27
2018-01-21T04:53:55.942Z,96530.34
2018-01-21T04:54:26.853Z,96523.20
2018-01-21T04:54:57.790Z,96530.31
2018-01-21T04:55:28.685Z,96531.15
2018-01-21T04:55:59.585Z,96532.05
2018-01-21T04:56:30.519Z,96532.97
2018-01-21T04:57:01.422Z,96531.25
2018-01-21T04:57:32.337Z,96534.24
2018-01-21T04:58:03.238Z,96537.55
2018-01-21T04:58:34.137Z,96531.88
2018-01-21T04:59:05.034Z,96538.28
2018-01-21T04:59:35.938Z,96534.11
2018-01-21T05:00:06.841Z,96536.22
2018-01-21T05:00:37.735Z,96537.00
2018-01-21T05:01:08.677Z,96533.67
2018-01-21T05:01:39.586Z,96541.82
2018-01-21T05:02:10.478Z,96536.72
2018-01-21T05:02:41.417Z,96534.59
2018-01-21T05:03:12.322Z,96540.54
2018-01-21T05:03:43.219Z,96540.13
2018-01-21T05:04:14.113Z,96542.73
2018-01-21T05:04:45.004Z,96524.83
2018-01-21T05:05:15.905Z,96543.07
2018-01-21T05:05:46.845Z,96538.83
2018-01-21T05:06:17.753Z,96540.10
2018-01-21T05:06:48.657Z,96539.27
2018-01-21T05:07:19.553Z,96542.26
2018-01-21T05:07:50.461Z,96544.34
2018-01-21T05:08:21.370Z,96545.20
2018-01-21T05:08:52.269Z,96546.03
2018-01-21T05:09:23.178Z,96542.23
2018-01-21T05:09:54.073Z,96543.52
2018-01-21T05:10:24.974Z,96549.78
2018-01-21T05:10:55.910Z,96550.62
2018-01-21T05:11:26.813Z,96548.04
2018-01-21T05:11:57.705Z,96549.42
2018-01-21T05:12:28.605Z,96548.92
2018-01-21T05:12:59.518Z,96544.27
2018-01-21T05:13:30.474Z,96549.76
2018-01-21T05:14:01.378Z,96551.03
2018-01-21T05:14:32.278Z,96551.34
2018-01-21T05:15:03.169Z,96552.62
2018-01-21T05:15:34.074Z,96553.51
2018-01-21T05:16:04.978Z,96550.95
2018-01-21T05:16:35.867Z,96551.84
2018-01-21T05:17:06.767Z,96553.12
2018-01-21T05:17:37.665Z,96552.65
2018-01-21T05:18:08.557Z,96551.73
2018-01-21T05:18:39.525Z,96550.07
2018-01-21T05:19:10.423Z,96553.06
2018-01-21T05:19:41.326Z,96557.75
2018-01-21T05:20:12.225Z,96558.22
2018-01-21T05:20:43.129Z,96541.06
2018-01-21T05:21:14.026Z,96561.97
2018-01-21T05:21:44.926Z,96563.64
2018-01-21T05:22:15.822Z,96564.00
2018-01-21T05:22:46.710Z,96565.27
2018-01-21T05:23:17.613Z,96564.05
2018-01-21T05:23:48.545Z,96567.91
2018-01-21T05:24:19.441Z,96561.22
2018-01-21T05:24:50.345Z,96564.08
2018-01-21T05:25:21.242Z,96570.87
2018-01-21T05:25:52.133Z,96568.34
2018-01-21T05:26:23.029Z,96565.41
2018-01-21T05:26:53.934Z,96571.70
2018-01-21T05:27:24.829Z,96572.52
2018-01-21T05:27:55.734Z,96575.98
2018-01-21T05:28:26.665Z,96572.52
2018-01-21T05:28:57.570Z,96579.28
2018-01-21T05:29:28.457Z,96572.52
2018-01-21T05:29:59.356Z,96579.75
2018-01-21T05:30:30.262Z,96582.72
2018-01-21T05:31:01.165Z,96581.39
2018-01-21T05:31:32.065Z,96578.86
2018-01-21T05:32:02.978Z,96579.75
2018-01-21T05:32:33.882Z,96587.05
2018-01-21T05:33:04.821Z,96585.66
2018-01-21T05:33:35.726Z,96585.66
2018-01-21T05:34:06.626Z,96583.53
2018-01-21T05:34:37.533Z,96585.25
2018-01-21T05:35:08.425Z,96588.11
2018-01-21T05:35:39.313Z,96579.52
2018-01-21T05:36:10.209Z,96587.36
2018-01-21T05:36:41.102Z,96591.18
2018-01-21T05:37:11.998Z,96590.34
2018-01-21T05:37:42.902Z,96587.36
2018-01-21T05:38:13.849Z,96587.37
2018-01-21T05:38:44.749Z,96589.02
2018-01-21T05:39:15.641Z,96597.02
2018-01-21T05:39:46.535Z,96598.21
2018-01-21T05:40:17.473Z,96596.52
2018-01-21T05:40:48.413Z,96601.73
2018-01-21T05:41:19.317Z,96599.16
2018-01-21T05:41:50.221Z,96600.42
2018-01-21T05:42:21.126Z,96603.86
2018-01-21T05:42:52.017Z,96606.83
2018-01-21T05:43:22.901Z,96606.00
2018-01-21T05:43:53.793Z,96606.83
2018-01-21T05:44:24.685Z,96609.36
2018-01-21T05:44:55.637Z,96610.61
2018-01-21T05:45:26.534Z,96606.81
2018-01-21T05:45:57.434Z,96610.78
2018-01-21T05:46:28.338Z,96608.65
2018-01-21T05:46:59.242Z,96609.44
2018-01-21T05:47:30.157Z,96606.94
2018-01-21T05:48:01.057Z,96613.29
2018-01-21T05:48:31.998Z,96613.21
2018-01-21T05:49:02.950Z,96610.72
2018-01-21T05:49:33.846Z,96611.09
2018-01-21T05:50:04.778Z,96616.17
2018-01-21T05:50:35.673Z,96612.38
2018-01-21T05:51:06.609Z,96614.56
2018-01-21T05:51:37.518Z,96621.78
2018-01-21T05:52:08.494Z,96614.92
2018-01-21T05:52:39.393Z,96618.70
2018-01-21T05:53:10.291Z,96625.50
2018-01-21T05:53:41.199Z,96622.53
2018-01-21T05:54:12.106Z,96622.45
2018-01-21T05:54:43.054Z,96627.12
2018-01-21T05:55:13.969Z,96623.73
2018-01-21T05:55:44.865Z,96632.30
2018-01-21T05:56:15.769Z,96628.05
2018-01-21T05:56:46.658Z,96628.00
2018-01-21T05:57:17.558Z,96627.20
2018-01-21T05:57:48.505Z,96637.03
2018-01-21T05:58:19.417Z,96630.71
2018-01-21T05:58:50.317Z,96634.13
2018-01-21T05:59:21.221Z,96640.86
2018-01-21T05:59:52.130Z,96637.51
2018-01-21T06:00:23.041Z,96637.53
2018-01-21T06:00:53.937Z,96639.66
2018-01-21T06:01:24.829Z,96642.14
2018-01-21T06:01:55.730Z,96635.84
2018-01-21T06:02:26.629Z,96641.34
2018-01-21T06:02:57.533Z,96642.27